Key West, FL

07:50 EST le 10 février 2016 (GMT -0500)
Big Coppitt Key Gulfside | | Change Station
CLOSE
Current Station
Stations météorologiques personnelles
Location: Key West, FL
Altitude: 31 ft
Stations météo à proximité

Alt. 31 ft 24.60 °N, 81.67 °W | Updated 1 minute ago

Couvert
Couvert
64.2 ° F
Paraît 64.2 ° F
N
4.2
Vent Variable Vent de SO

Aujourd'hui
Haut(e) -- | Bas -- ° F
--% Risque de précip.
Hier
Haut(e) -- | Bas -- ° F
Precip. -- pouce
Pression 30.17 pouce
Visibilité 10.0 Miles terrestres
Nuages Nuages épars 4500 ft
Couvert 7000 ft
Point de rosée 51 ° F
Humidité 63%
Précipitations 0.00 pouce
Profondeur de la couche neigeuse Non disponible.
7:03 AM 6:17 PM
Lune montante, 5% visible
METAR KNQX 101153Z 33012KT 10SM SCT045 OVC070 18/11 A3017 RMK AO2 SLP215 60000 T01780111 10189 20178 51016 $
Pression 30.17 pouce
Visibilité 10.0 Miles terrestres
Nuages Nuages épars 4500 ft
Couvert 7000 ft
Point de rosée 51 ° F
Humidité 63%
Précipitations 0.00 pouce
Profondeur de la couche neigeuse Non disponible.
7:03 AM 6:17 PM
Lune montante, 5% visible
METAR KNQX 101153Z 33012KT 10SM SCT045 OVC070 18/11 A3017 RMK AO2 SLP215 60000 T01780111 10189 20178 51016 $

10-Day Weather Forecast

Almanac

Astronomie

Feb. 10, 2016 Lever Coucher
Temps réel
Crépuscule civil
Crépuscule nautique
Crépuscule astronomique
Lune
Durée de lumière visible
Longueur du jour
Tomorrow will be .
, % of the Moon is Illuminated

Extrêmes aujourd'hui

State Highs State Lows

Community

WunderPhotos

Upload Photos

1,891,837 Photos téléchargées !

WunderBlog® & News

Nearby

Qualité de l'air

  Qualité de l'air Indice de la qualité de l'air Polluant
Not available.

Épaisseur de neige

Station Depth Altitude

Activité sismique

Ville Distance Mag. Time & Date
Minimum magnitude displayed is 2.5.

Températures des eaux côtières

Lieu Température

Stations

Stations météo à proximité

Emplacement de la station Température Refroidissement éolien Point de rosée Humidité Vent Precip. Alt. Mise à jour Type
                   

Watches & Warnings

There are currently no watches in effect.